sensor_id;sensor_type;location;lat;lon;timestamp;P1;durP1;ratioP1;P2;durP2;ratioP2
4409;SDS011;2218;51.408;7.208;2022-11-13T00:00:02;1.30;;;1.20;;
4409;SDS011;2218;51.408;7.208;2022-11-13T00:02:50;1.20;;;1.10;;
4409;SDS011;2218;51.408;7.208;2022-11-13T00:05:36;1.20;;;1.10;;
4409;SDS011;2218;51.408;7.208;2022-11-13T00:08:21;1.10;;;1.00;;
4409;SDS011;2218;51.408;7.208;2022-11-13T00:11:07;1.20;;;1.10;;
4409;SDS011;2218;51.408;7.208;2022-11-13T00:13:56;1.20;;;1.10;;
4409;SDS011;2218;51.408;7.208;2022-11-13T00:16:41;1.30;;;1.20;;
4409;SDS011;2218;51.408;7.208;2022-11-13T00:19:28;1.17;;;1.07;;
4409;SDS011;2218;51.408;7.208;2022-11-13T00:22:13;1.20;;;1.10;;
4409;SDS011;2218;51.408;7.208;2022-11-13T00:24:59;1.10;;;1.00;;
4409;SDS011;2218;51.408;7.208;2022-11-13T00:27:45;1.30;;;1.20;;
4409;SDS011;2218;51.408;7.208;2022-11-13T00:30:30;0.90;;;0.90;;
4409;SDS011;2218;51.408;7.208;2022-11-13T00:33:16;1.53;;;1.40;;
4409;SDS011;2218;51.408;7.208;2022-11-13T00:36:03;1.40;;;1.30;;
4409;SDS011;2218;51.408;7.208;2022-11-13T00:38:51;1.30;;;1.20;;
4409;SDS011;2218;51.408;7.208;2022-11-13T00:41:37;0.90;;;0.90;;
4409;SDS011;2218;51.408;7.208;2022-11-13T00:44:23;1.23;;;1.13;;
4409;SDS011;2218;51.408;7.208;2022-11-13T00:47:09;1.20;;;1.10;;
4409;SDS011;2218;51.408;7.208;2022-11-13T00:49:55;1.20;;;1.10;;
4409;SDS011;2218;51.408;7.208;2022-11-13T00:52:41;0.93;;;0.93;;
4409;SDS011;2218;51.408;7.208;2022-11-13T00:55:27;1.30;;;1.20;;
4409;SDS011;2218;51.408;7.208;2022-11-13T00:58:12;1.40;;;1.30;;
4409;SDS011;2218;51.408;7.208;2022-11-13T01:01:03;1.30;;;1.20;;
4409;SDS011;2218;51.408;7.208;2022-11-13T01:03:51;1.40;;;1.30;;
4409;SDS011;2218;51.408;7.208;2022-11-13T01:06:36;1.20;;;1.10;;
4409;SDS011;2218;51.408;7.208;2022-11-13T01:09:23;1.10;;;1.00;;
4409;SDS011;2218;51.408;7.208;2022-11-13T01:12:09;1.30;;;1.20;;
4409;SDS011;2218;51.408;7.208;2022-11-13T01:14:54;1.23;;;1.13;;
4409;SDS011;2218;51.408;7.208;2022-11-13T01:17:40;1.40;;;1.30;;
4409;SDS011;2218;51.408;7.208;2022-11-13T01:20:26;1.10;;;0.90;;
4409;SDS011;2218;51.408;7.208;2022-11-13T01:23:11;1.50;;;1.40;;
4409;SDS011;2218;51.408;7.208;2022-11-13T01:26:04;1.27;;;1.17;;
4409;SDS011;2218;51.408;7.208;2022-11-13T01:28:52;1.30;;;1.20;;
4409;SDS011;2218;51.408;7.208;2022-11-13T01:31:39;1.53;;;1.43;;
4409;SDS011;2218;51.408;7.208;2022-11-13T01:34:25;1.20;;;1.10;;
4409;SDS011;2218;51.408;7.208;2022-11-13T01:37:11;1.30;;;1.20;;
4409;SDS011;2218;51.408;7.208;2022-11-13T01:39:56;1.30;;;1.20;;
4409;SDS011;2218;51.408;7.208;2022-11-13T01:42:43;1.70;;;1.60;;
4409;SDS011;2218;51.408;7.208;2022-11-13T01:48:58;1.37;;;1.27;;
4409;SDS011;2218;51.408;7.208;2022-11-13T01:51:59;1.50;;;1.40;;
4409;SDS011;2218;51.408;7.208;2022-11-13T01:54:51;1.80;;;1.70;;
4409;SDS011;2218;51.408;7.208;2022-11-13T01:57:40;1.50;;;1.40;;
4409;SDS011;2218;51.408;7.208;2022-11-13T02:00:27;1.37;;;1.27;;
4409;SDS011;2218;51.408;7.208;2022-11-13T02:03:13;1.20;;;1.10;;
4409;SDS011;2218;51.408;7.208;2022-11-13T02:05:58;1.30;;;1.20;;
4409;SDS011;2218;51.408;7.208;2022-11-13T02:08:45;1.50;;;1.40;;
4409;SDS011;2218;51.408;7.208;2022-11-13T02:11:32;1.40;;;1.30;;
4409;SDS011;2218;51.408;7.208;2022-11-13T02:14:18;1.40;;;1.30;;
4409;SDS011;2218;51.408;7.208;2022-11-13T02:17:09;1.40;;;1.30;;
4409;SDS011;2218;51.408;7.208;2022-11-13T02:19:59;1.60;;;1.50;;
4409;SDS011;2218;51.408;7.208;2022-11-13T02:22:49;1.30;;;1.20;;
4409;SDS011;2218;51.408;7.208;2022-11-13T02:25:44;1.30;;;1.20;;
4409;SDS011;2218;51.408;7.208;2022-11-13T02:28:36;1.70;;;1.60;;
4409;SDS011;2218;51.408;7.208;2022-11-13T02:31:21;1.50;;;1.40;;
4409;SDS011;2218;51.408;7.208;2022-11-13T02:34:07;1.30;;;1.20;;
4409;SDS011;2218;51.408;7.208;2022-11-13T02:36:53;1.30;;;1.20;;
4409;SDS011;2218;51.408;7.208;2022-11-13T02:39:39;1.20;;;1.10;;
4409;SDS011;2218;51.408;7.208;2022-11-13T02:42:26;1.63;;;1.47;;
4409;SDS011;2218;51.408;7.208;2022-11-13T02:45:12;1.30;;;1.20;;
4409;SDS011;2218;51.408;7.208;2022-11-13T02:47:58;1.87;;;1.60;;
4409;SDS011;2218;51.408;7.208;2022-11-13T02:50:44;1.30;;;1.20;;
4409;SDS011;2218;51.408;7.208;2022-11-13T02:53:29;1.27;;;1.17;;
4409;SDS011;2218;51.408;7.208;2022-11-13T02:56:15;1.50;;;1.40;;
4409;SDS011;2218;51.408;7.208;2022-11-13T02:59:02;1.40;;;1.30;;
4409;SDS011;2218;51.408;7.208;2022-11-13T03:01:48;1.33;;;1.23;;
4409;SDS011;2218;51.408;7.208;2022-11-13T03:04:34;1.77;;;1.63;;
4409;SDS011;2218;51.408;7.208;2022-11-13T03:07:19;1.27;;;1.17;;
4409;SDS011;2218;51.408;7.208;2022-11-13T03:10:05;1.40;;;1.30;;
4409;SDS011;2218;51.408;7.208;2022-11-13T03:12:52;1.30;;;1.20;;
4409;SDS011;2218;51.408;7.208;2022-11-13T03:15:39;1.30;;;1.20;;
4409;SDS011;2218;51.408;7.208;2022-11-13T03:18:25;1.57;;;1.47;;
4409;SDS011;2218;51.408;7.208;2022-11-13T03:21:11;1.33;;;1.23;;
4409;SDS011;2218;51.408;7.208;2022-11-13T03:23:58;1.60;;;1.50;;
4409;SDS011;2218;51.408;7.208;2022-11-13T03:26:44;1.67;;;1.57;;
4409;SDS011;2218;51.408;7.208;2022-11-13T03:29:29;1.20;;;1.10;;
4409;SDS011;2218;51.408;7.208;2022-11-13T03:32:16;1.37;;;1.27;;
4409;SDS011;2218;51.408;7.208;2022-11-13T03:35:02;1.17;;;1.10;;
4409;SDS011;2218;51.408;7.208;2022-11-13T03:37:49;1.37;;;1.27;;
4409;SDS011;2218;51.408;7.208;2022-11-13T03:40:35;1.20;;;1.10;;
4409;SDS011;2218;51.408;7.208;2022-11-13T03:43:20;1.50;;;1.40;;
4409;SDS011;2218;51.408;7.208;2022-11-13T03:46:07;1.33;;;1.23;;
4409;SDS011;2218;51.408;7.208;2022-11-13T03:48:54;1.00;;;0.90;;
4409;SDS011;2218;51.408;7.208;2022-11-13T03:51:39;1.30;;;1.20;;
4409;SDS011;2218;51.408;7.208;2022-11-13T03:54:25;1.30;;;1.20;;
4409;SDS011;2218;51.408;7.208;2022-11-13T03:57:10;1.20;;;1.10;;
4409;SDS011;2218;51.408;7.208;2022-11-13T03:59:56;1.40;;;1.30;;
4409;SDS011;2218;51.408;7.208;2022-11-13T04:02:41;1.10;;;1.00;;
4409;SDS011;2218;51.408;7.208;2022-11-13T04:05:28;1.30;;;1.20;;
4409;SDS011;2218;51.408;7.208;2022-11-13T04:08:15;1.07;;;0.97;;
4409;SDS011;2218;51.408;7.208;2022-11-13T04:11:05;1.20;;;1.10;;
4409;SDS011;2218;51.408;7.208;2022-11-13T04:13:51;1.30;;;1.00;;
4409;SDS011;2218;51.408;7.208;2022-11-13T04:16:37;1.23;;;1.13;;
4409;SDS011;2218;51.408;7.208;2022-11-13T04:19:23;1.30;;;1.20;;
4409;SDS011;2218;51.408;7.208;2022-11-13T04:22:09;1.10;;;1.00;;
4409;SDS011;2218;51.408;7.208;2022-11-13T04:24:55;1.40;;;1.30;;
4409;SDS011;2218;51.408;7.208;2022-11-13T04:27:41;1.30;;;1.20;;
4409;SDS011;2218;51.408;7.208;2022-11-13T04:30:26;1.30;;;1.20;;
4409;SDS011;2218;51.408;7.208;2022-11-13T04:33:12;1.10;;;1.00;;
4409;SDS011;2218;51.408;7.208;2022-11-13T04:35:57;1.10;;;1.00;;
4409;SDS011;2218;51.408;7.208;2022-11-13T04:38:44;0.90;;;0.90;;
4409;SDS011;2218;51.408;7.208;2022-11-13T04:41:30;1.17;;;1.07;;
4409;SDS011;2218;51.408;7.208;2022-11-13T04:44:33;1.00;;;1.00;;
4409;SDS011;2218;51.408;7.208;2022-11-13T04:47:19;1.40;;;1.30;;
4409;SDS011;2218;51.408;7.208;2022-11-13T04:50:05;1.17;;;1.07;;
4409;SDS011;2218;51.408;7.208;2022-11-13T04:52:51;1.93;;;1.30;;
4409;SDS011;2218;51.408;7.208;2022-11-13T04:55:38;1.73;;;1.20;;
4409;SDS011;2218;51.408;7.208;2022-11-13T04:58:24;1.20;;;1.10;;
4409;SDS011;2218;51.408;7.208;2022-11-13T05:01:09;1.20;;;1.10;;
4409;SDS011;2218;51.408;7.208;2022-11-13T05:03:55;1.40;;;1.30;;
4409;SDS011;2218;51.408;7.208;2022-11-13T05:06:40;1.10;;;1.00;;
4409;SDS011;2218;51.408;7.208;2022-11-13T05:09:26;1.30;;;1.20;;
4409;SDS011;2218;51.408;7.208;2022-11-13T05:12:14;1.20;;;1.10;;
4409;SDS011;2218;51.408;7.208;2022-11-13T05:14:59;1.00;;;0.90;;
4409;SDS011;2218;51.408;7.208;2022-11-13T05:17:47;1.20;;;1.10;;
4409;SDS011;2218;51.408;7.208;2022-11-13T05:20:32;0.90;;;0.90;;
4409;SDS011;2218;51.408;7.208;2022-11-13T05:23:18;1.30;;;1.20;;
4409;SDS011;2218;51.408;7.208;2022-11-13T05:26:04;1.20;;;1.10;;
4409;SDS011;2218;51.408;7.208;2022-11-13T05:28:55;0.90;;;0.90;;
4409;SDS011;2218;51.408;7.208;2022-11-13T05:31:41;1.00;;;1.00;;
4409;SDS011;2218;51.408;7.208;2022-11-13T05:34:26;1.30;;;1.20;;
4409;SDS011;2218;51.408;7.208;2022-11-13T05:37:12;0.90;;;0.90;;
4409;SDS011;2218;51.408;7.208;2022-11-13T05:39:57;1.17;;;1.07;;
4409;SDS011;2218;51.408;7.208;2022-11-13T05:42:42;0.80;;;0.80;;
4409;SDS011;2218;51.408;7.208;2022-11-13T05:45:29;1.33;;;1.20;;
4409;SDS011;2218;51.408;7.208;2022-11-13T05:48:15;1.07;;;1.03;;
4409;SDS011;2218;51.408;7.208;2022-11-13T05:51:01;1.17;;;1.07;;
4409;SDS011;2218;51.408;7.208;2022-11-13T05:53:48;1.17;;;1.07;;
4409;SDS011;2218;51.408;7.208;2022-11-13T05:56:35;1.30;;;1.20;;
4409;SDS011;2218;51.408;7.208;2022-11-13T05:59:21;0.93;;;0.93;;
4409;SDS011;2218;51.408;7.208;2022-11-13T06:02:08;0.90;;;0.90;;
4409;SDS011;2218;51.408;7.208;2022-11-13T06:04:53;1.13;;;1.03;;
4409;SDS011;2218;51.408;7.208;2022-11-13T06:07:39;1.07;;;0.97;;
4409;SDS011;2218;51.408;7.208;2022-11-13T06:10:25;1.07;;;0.97;;
4409;SDS011;2218;51.408;7.208;2022-11-13T06:13:10;1.00;;;1.00;;
4409;SDS011;2218;51.408;7.208;2022-11-13T06:15:59;1.07;;;0.97;;
4409;SDS011;2218;51.408;7.208;2022-11-13T06:18:48;0.87;;;0.87;;
4409;SDS011;2218;51.408;7.208;2022-11-13T06:21:37;1.10;;;1.00;;
4409;SDS011;2218;51.408;7.208;2022-11-13T06:24:24;0.80;;;0.80;;
4409;SDS011;2218;51.408;7.208;2022-11-13T06:27:09;1.10;;;1.00;;
4409;SDS011;2218;51.408;7.208;2022-11-13T06:29:55;1.00;;;0.90;;
4409;SDS011;2218;51.408;7.208;2022-11-13T06:32:41;0.90;;;0.90;;
4409;SDS011;2218;51.408;7.208;2022-11-13T06:35:28;1.27;;;1.03;;
4409;SDS011;2218;51.408;7.208;2022-11-13T06:38:14;0.90;;;0.90;;
4409;SDS011;2218;51.408;7.208;2022-11-13T06:41:00;0.90;;;0.90;;
4409;SDS011;2218;51.408;7.208;2022-11-13T06:43:47;1.47;;;0.90;;
4409;SDS011;2218;51.408;7.208;2022-11-13T06:46:34;1.20;;;1.10;;
4409;SDS011;2218;51.408;7.208;2022-11-13T06:49:19;1.00;;;1.00;;
4409;SDS011;2218;51.408;7.208;2022-11-13T06:52:06;0.90;;;0.80;;
4409;SDS011;2218;51.408;7.208;2022-11-13T06:54:52;1.00;;;0.90;;
4409;SDS011;2218;51.408;7.208;2022-11-13T06:57:37;0.80;;;0.80;;
4409;SDS011;2218;51.408;7.208;2022-11-13T07:00:23;0.87;;;0.87;;
4409;SDS011;2218;51.408;7.208;2022-11-13T07:03:13;1.10;;;1.00;;
4409;SDS011;2218;51.408;7.208;2022-11-13T07:06:01;1.07;;;0.97;;
4409;SDS011;2218;51.408;7.208;2022-11-13T07:08:51;0.80;;;0.73;;
4409;SDS011;2218;51.408;7.208;2022-11-13T07:11:37;0.90;;;0.90;;
4409;SDS011;2218;51.408;7.208;2022-11-13T07:14:23;0.90;;;0.80;;
4409;SDS011;2218;51.408;7.208;2022-11-13T07:17:09;0.83;;;0.83;;
4409;SDS011;2218;51.408;7.208;2022-11-13T07:19:54;0.83;;;0.83;;
4409;SDS011;2218;51.408;7.208;2022-11-13T07:22:40;1.27;;;1.00;;
4409;SDS011;2218;51.408;7.208;2022-11-13T07:25:27;1.10;;;1.00;;
4409;SDS011;2218;51.408;7.208;2022-11-13T07:28:14;0.90;;;0.90;;
4409;SDS011;2218;51.408;7.208;2022-11-13T07:31:00;1.00;;;0.90;;
4409;SDS011;2218;51.408;7.208;2022-11-13T07:33:46;0.93;;;0.93;;
4409;SDS011;2218;51.408;7.208;2022-11-13T07:36:34;0.70;;;0.60;;
4409;SDS011;2218;51.408;7.208;2022-11-13T07:39:19;0.80;;;0.77;;
4409;SDS011;2218;51.408;7.208;2022-11-13T07:42:06;0.90;;;0.80;;
4409;SDS011;2218;51.408;7.208;2022-11-13T07:44:51;0.80;;;0.80;;
4409;SDS011;2218;51.408;7.208;2022-11-13T07:47:37;0.80;;;0.80;;
4409;SDS011;2218;51.408;7.208;2022-11-13T07:50:23;1.00;;;1.00;;
4409;SDS011;2218;51.408;7.208;2022-11-13T07:53:09;0.80;;;0.70;;
4409;SDS011;2218;51.408;7.208;2022-11-13T07:55:54;1.07;;;0.97;;
4409;SDS011;2218;51.408;7.208;2022-11-13T07:58:44;0.90;;;0.90;;
4409;SDS011;2218;51.408;7.208;2022-11-13T08:01:30;1.00;;;0.90;;
4409;SDS011;2218;51.408;7.208;2022-11-13T08:04:15;1.10;;;1.00;;
4409;SDS011;2218;51.408;7.208;2022-11-13T08:07:01;0.80;;;0.70;;
4409;SDS011;2218;51.408;7.208;2022-11-13T08:09:46;0.93;;;0.90;;
4409;SDS011;2218;51.408;7.208;2022-11-13T08:12:32;0.80;;;0.80;;
4409;SDS011;2218;51.408;7.208;2022-11-13T08:15:19;0.93;;;0.90;;
4409;SDS011;2218;51.408;7.208;2022-11-13T08:18:04;1.00;;;0.93;;
4409;SDS011;2218;51.408;7.208;2022-11-13T08:20:50;0.90;;;0.90;;
4409;SDS011;2218;51.408;7.208;2022-11-13T08:23:36;0.70;;;0.70;;
4409;SDS011;2218;51.408;7.208;2022-11-13T08:26:21;0.70;;;0.67;;
4409;SDS011;2218;51.408;7.208;2022-11-13T08:29:07;0.93;;;0.90;;
4409;SDS011;2218;51.408;7.208;2022-11-13T08:31:54;0.80;;;0.70;;
4409;SDS011;2218;51.408;7.208;2022-11-13T08:34:40;0.80;;;0.80;;
4409;SDS011;2218;51.408;7.208;2022-11-13T08:37:26;0.90;;;0.90;;
4409;SDS011;2218;51.408;7.208;2022-11-13T08:40:12;1.00;;;0.90;;
4409;SDS011;2218;51.408;7.208;2022-11-13T08:42:58;0.80;;;0.80;;
4409;SDS011;2218;51.408;7.208;2022-11-13T08:45:44;0.80;;;0.80;;
4409;SDS011;2218;51.408;7.208;2022-11-13T08:48:32;0.80;;;0.73;;
4409;SDS011;2218;51.408;7.208;2022-11-13T08:51:17;0.93;;;0.90;;
4409;SDS011;2218;51.408;7.208;2022-11-13T08:54:03;0.90;;;0.90;;
4409;SDS011;2218;51.408;7.208;2022-11-13T08:56:49;0.80;;;0.80;;
4409;SDS011;2218;51.408;7.208;2022-11-13T08:59:35;1.00;;;0.90;;
4409;SDS011;2218;51.408;7.208;2022-11-13T09:02:20;1.23;;;1.13;;
4409;SDS011;2218;51.408;7.208;2022-11-13T09:05:09;1.03;;;0.93;;
4409;SDS011;2218;51.408;7.208;2022-11-13T09:07:56;1.13;;;1.00;;
4409;SDS011;2218;51.408;7.208;2022-11-13T09:10:43;1.03;;;0.93;;
4409;SDS011;2218;51.408;7.208;2022-11-13T09:13:28;1.13;;;1.03;;
4409;SDS011;2218;51.408;7.208;2022-11-13T09:16:14;0.90;;;0.90;;
4409;SDS011;2218;51.408;7.208;2022-11-13T09:19:00;0.93;;;0.93;;
4409;SDS011;2218;51.408;7.208;2022-11-13T09:21:49;1.30;;;1.20;;
4409;SDS011;2218;51.408;7.208;2022-11-13T09:24:34;0.90;;;0.90;;
4409;SDS011;2218;51.408;7.208;2022-11-13T09:27:20;1.00;;;1.00;;
4409;SDS011;2218;51.408;7.208;2022-11-13T09:30:06;0.83;;;0.80;;
4409;SDS011;2218;51.408;7.208;2022-11-13T09:32:53;1.00;;;0.70;;
4409;SDS011;2218;51.408;7.208;2022-11-13T09:35:41;0.90;;;0.90;;
4409;SDS011;2218;51.408;7.208;2022-11-13T09:38:28;0.70;;;0.70;;
4409;SDS011;2218;51.408;7.208;2022-11-13T09:41:16;1.17;;;1.07;;
4409;SDS011;2218;51.408;7.208;2022-11-13T09:44:05;0.80;;;0.70;;
4409;SDS011;2218;51.408;7.208;2022-11-13T09:47:01;0.83;;;0.80;;
4409;SDS011;2218;51.408;7.208;2022-11-13T09:49:56;1.23;;;0.97;;
4409;SDS011;2218;51.408;7.208;2022-11-13T09:52:49;1.10;;;1.00;;
4409;SDS011;2218;51.408;7.208;2022-11-13T09:55:39;1.20;;;1.10;;
4409;SDS011;2218;51.408;7.208;2022-11-13T09:58:36;1.83;;;1.20;;
4409;SDS011;2218;51.408;7.208;2022-11-13T10:01:36;1.10;;;0.90;;
4409;SDS011;2218;51.408;7.208;2022-11-13T10:04:39;0.80;;;0.80;;
4409;SDS011;2218;51.408;7.208;2022-11-13T10:07:40;0.90;;;0.90;;
4409;SDS011;2218;51.408;7.208;2022-11-13T10:10:45;1.40;;;1.30;;
4409;SDS011;2218;51.408;7.208;2022-11-13T10:13:37;0.80;;;0.80;;
4409;SDS011;2218;51.408;7.208;2022-11-13T10:16:29;0.90;;;0.80;;
4409;SDS011;2218;51.408;7.208;2022-11-13T10:19:22;0.83;;;0.83;;
4409;SDS011;2218;51.408;7.208;2022-11-13T10:22:15;1.17;;;1.07;;
4409;SDS011;2218;51.408;7.208;2022-11-13T10:25:11;1.00;;;0.93;;
4409;SDS011;2218;51.408;7.208;2022-11-13T10:28:08;1.43;;;1.00;;
4409;SDS011;2218;51.408;7.208;2022-11-13T10:31:00;1.10;;;1.00;;
4409;SDS011;2218;51.408;7.208;2022-11-13T10:33:45;1.10;;;1.00;;
4409;SDS011;2218;51.408;7.208;2022-11-13T10:36:33;1.07;;;0.97;;
4409;SDS011;2218;51.408;7.208;2022-11-13T10:39:27;0.97;;;0.93;;
4409;SDS011;2218;51.408;7.208;2022-11-13T10:42:19;1.10;;;1.00;;
4409;SDS011;2218;51.408;7.208;2022-11-13T10:45:15;1.00;;;0.90;;
4409;SDS011;2218;51.408;7.208;2022-11-13T10:48:04;1.10;;;1.00;;
4409;SDS011;2218;51.408;7.208;2022-11-13T10:51:03;1.17;;;1.07;;
4409;SDS011;2218;51.408;7.208;2022-11-13T10:54:15;1.10;;;1.00;;
4409;SDS011;2218;51.408;7.208;2022-11-13T10:57:16;0.90;;;0.90;;
4409;SDS011;2218;51.408;7.208;2022-11-13T11:00:22;1.40;;;1.30;;
4409;SDS011;2218;51.408;7.208;2022-11-13T11:03:14;1.13;;;1.03;;
4409;SDS011;2218;51.408;7.208;2022-11-13T11:06:02;0.83;;;0.80;;
4409;SDS011;2218;51.408;7.208;2022-11-13T11:08:48;1.00;;;1.00;;
4409;SDS011;2218;51.408;7.208;2022-11-13T11:11:34;1.13;;;1.03;;
4409;SDS011;2218;51.408;7.208;2022-11-13T11:14:39;0.93;;;0.87;;
4409;SDS011;2218;51.408;7.208;2022-11-13T11:17:33;0.90;;;0.80;;
4409;SDS011;2218;51.408;7.208;2022-11-13T11:20:34;1.03;;;0.93;;
4409;SDS011;2218;51.408;7.208;2022-11-13T11:23:29;0.90;;;0.90;;
4409;SDS011;2218;51.408;7.208;2022-11-13T11:26:25;1.10;;;1.00;;
4409;SDS011;2218;51.408;7.208;2022-11-13T11:29:18;0.80;;;0.80;;
4409;SDS011;2218;51.408;7.208;2022-11-13T11:32:15;1.10;;;1.00;;
4409;SDS011;2218;51.408;7.208;2022-11-13T11:35:15;0.80;;;0.70;;
4409;SDS011;2218;51.408;7.208;2022-11-13T11:38:08;0.97;;;0.87;;
4409;SDS011;2218;51.408;7.208;2022-11-13T11:41:01;1.07;;;0.97;;
4409;SDS011;2218;51.408;7.208;2022-11-13T11:43:55;0.90;;;0.83;;
4409;SDS011;2218;51.408;7.208;2022-11-13T11:46:49;0.83;;;0.83;;
4409;SDS011;2218;51.408;7.208;2022-11-13T11:49:34;1.07;;;0.97;;
4409;SDS011;2218;51.408;7.208;2022-11-13T11:52:25;0.80;;;0.80;;
4409;SDS011;2218;51.408;7.208;2022-11-13T11:55:40;1.10;;;1.00;;
4409;SDS011;2218;51.408;7.208;2022-11-13T12:05:33;1.13;;;1.03;;
4409;SDS011;2218;51.408;7.208;2022-11-13T12:08:31;0.90;;;0.80;;
4409;SDS011;2218;51.408;7.208;2022-11-13T12:11:29;1.13;;;1.00;;
4409;SDS011;2218;51.408;7.208;2022-11-13T12:14:20;0.80;;;0.80;;
4409;SDS011;2218;51.408;7.208;2022-11-13T12:17:25;0.93;;;0.90;;
4409;SDS011;2218;51.408;7.208;2022-11-13T12:20:31;1.20;;;1.10;;
4409;SDS011;2218;51.408;7.208;2022-11-13T12:23:32;1.13;;;1.03;;
4409;SDS011;2218;51.408;7.208;2022-11-13T12:26:34;0.90;;;0.80;;
4409;SDS011;2218;51.408;7.208;2022-11-13T12:29:37;1.47;;;1.30;;
4409;SDS011;2218;51.408;7.208;2022-11-13T12:32:47;0.80;;;0.80;;
4409;SDS011;2218;51.408;7.208;2022-11-13T12:35:48;0.90;;;0.90;;
4409;SDS011;2218;51.408;7.208;2022-11-13T12:38:41;1.30;;;1.20;;
4409;SDS011;2218;51.408;7.208;2022-11-13T12:41:35;1.17;;;1.07;;
4409;SDS011;2218;51.408;7.208;2022-11-13T12:44:31;0.90;;;0.90;;
4409;SDS011;2218;51.408;7.208;2022-11-13T12:47:32;1.00;;;0.90;;
4409;SDS011;2218;51.408;7.208;2022-11-13T12:50:23;1.17;;;1.07;;
4409;SDS011;2218;51.408;7.208;2022-11-13T12:53:11;1.20;;;1.10;;
4409;SDS011;2218;51.408;7.208;2022-11-13T12:56:14;1.10;;;1.00;;
4409;SDS011;2218;51.408;7.208;2022-11-13T12:59:26;0.80;;;0.70;;
4409;SDS011;2218;51.408;7.208;2022-11-13T13:05:49;1.27;;;1.00;;
4409;SDS011;2218;51.408;7.208;2022-11-13T13:09:02;2.03;;;1.00;;
4409;SDS011;2218;51.408;7.208;2022-11-13T13:12:15;1.30;;;1.20;;
4409;SDS011;2218;51.408;7.208;2022-11-13T13:15:23;1.50;;;0.90;;
4409;SDS011;2218;51.408;7.208;2022-11-13T13:18:24;0.90;;;0.90;;
4409;SDS011;2218;51.408;7.208;2022-11-13T13:21:14;0.87;;;0.87;;
4409;SDS011;2218;51.408;7.208;2022-11-13T13:24:06;0.90;;;0.80;;
4409;SDS011;2218;51.408;7.208;2022-11-13T13:27:24;0.90;;;0.90;;
4409;SDS011;2218;51.408;7.208;2022-11-13T13:30:16;1.00;;;0.90;;
4409;SDS011;2218;51.408;7.208;2022-11-13T13:33:11;0.80;;;0.80;;
4409;SDS011;2218;51.408;7.208;2022-11-13T13:36:08;1.10;;;1.00;;
4409;SDS011;2218;51.408;7.208;2022-11-13T13:39:19;1.10;;;1.00;;
4409;SDS011;2218;51.408;7.208;2022-11-13T13:42:26;0.90;;;0.90;;
4409;SDS011;2218;51.408;7.208;2022-11-13T13:45:30;1.00;;;1.00;;
4409;SDS011;2218;51.408;7.208;2022-11-13T13:48:31;1.10;;;1.00;;
4409;SDS011;2218;51.408;7.208;2022-11-13T13:51:24;1.10;;;1.00;;
4409;SDS011;2218;51.408;7.208;2022-11-13T13:54:14;0.90;;;0.80;;
4409;SDS011;2218;51.408;7.208;2022-11-13T13:57:08;0.97;;;0.90;;
4409;SDS011;2218;51.408;7.208;2022-11-13T14:00:00;0.83;;;0.83;;
4409;SDS011;2218;51.408;7.208;2022-11-13T14:02:46;0.80;;;0.80;;
4409;SDS011;2218;51.408;7.208;2022-11-13T14:05:35;0.97;;;0.93;;
4409;SDS011;2218;51.408;7.208;2022-11-13T14:08:21;0.93;;;0.93;;
4409;SDS011;2218;51.408;7.208;2022-11-13T14:11:16;0.80;;;0.70;;
4409;SDS011;2218;51.408;7.208;2022-11-13T14:14:08;1.00;;;1.00;;
4409;SDS011;2218;51.408;7.208;2022-11-13T14:17:01;1.00;;;0.90;;
4409;SDS011;2218;51.408;7.208;2022-11-13T14:19:47;0.80;;;0.70;;
4409;SDS011;2218;51.408;7.208;2022-11-13T14:22:34;0.93;;;0.90;;
4409;SDS011;2218;51.408;7.208;2022-11-13T14:25:21;0.80;;;0.80;;
4409;SDS011;2218;51.408;7.208;2022-11-13T14:28:12;0.80;;;0.80;;
4409;SDS011;2218;51.408;7.208;2022-11-13T14:31:01;0.80;;;0.70;;
4409;SDS011;2218;51.408;7.208;2022-11-13T14:33:51;1.20;;;1.10;;
4409;SDS011;2218;51.408;7.208;2022-11-13T14:36:37;0.87;;;0.80;;
4409;SDS011;2218;51.408;7.208;2022-11-13T14:39:26;1.17;;;1.07;;
4409;SDS011;2218;51.408;7.208;2022-11-13T14:42:16;0.80;;;0.80;;
4409;SDS011;2218;51.408;7.208;2022-11-13T14:45:15;1.03;;;0.93;;
4409;SDS011;2218;51.408;7.208;2022-11-13T14:48:16;0.80;;;0.80;;
4409;SDS011;2218;51.408;7.208;2022-11-13T14:51:05;1.00;;;0.90;;
4409;SDS011;2218;51.408;7.208;2022-11-13T14:57:14;0.83;;;0.83;;
4409;SDS011;2218;51.408;7.208;2022-11-13T15:00:08;1.20;;;1.10;;
4409;SDS011;2218;51.408;7.208;2022-11-13T15:02:56;0.80;;;0.80;;
4409;SDS011;2218;51.408;7.208;2022-11-13T15:05:42;1.00;;;0.90;;
4409;SDS011;2218;51.408;7.208;2022-11-13T15:08:29;0.80;;;0.73;;
4409;SDS011;2218;51.408;7.208;2022-11-13T15:11:15;0.83;;;0.80;;
4409;SDS011;2218;51.408;7.208;2022-11-13T15:14:07;0.80;;;0.80;;
4409;SDS011;2218;51.408;7.208;2022-11-13T15:16:55;0.87;;;0.80;;
4409;SDS011;2218;51.408;7.208;2022-11-13T15:19:42;0.80;;;0.80;;
4409;SDS011;2218;51.408;7.208;2022-11-13T15:22:31;0.80;;;0.73;;
4409;SDS011;2218;51.408;7.208;2022-11-13T15:25:18;1.00;;;0.90;;
4409;SDS011;2218;51.408;7.208;2022-11-13T15:28:06;0.90;;;0.80;;
4409;SDS011;2218;51.408;7.208;2022-11-13T15:30:51;1.00;;;0.90;;
4409;SDS011;2218;51.408;7.208;2022-11-13T15:33:37;0.90;;;0.90;;
4409;SDS011;2218;51.408;7.208;2022-11-13T15:36:22;1.13;;;1.03;;
4409;SDS011;2218;51.408;7.208;2022-11-13T15:39:08;0.80;;;0.70;;
4409;SDS011;2218;51.408;7.208;2022-11-13T15:41:57;0.97;;;0.90;;
4409;SDS011;2218;51.408;7.208;2022-11-13T15:44:43;0.70;;;0.70;;
4409;SDS011;2218;51.408;7.208;2022-11-13T15:47:29;1.10;;;0.90;;
4409;SDS011;2218;51.408;7.208;2022-11-13T15:50:17;0.80;;;0.70;;
4409;SDS011;2218;51.408;7.208;2022-11-13T15:53:03;0.80;;;0.67;;
4409;SDS011;2218;51.408;7.208;2022-11-13T15:55:54;1.10;;;1.00;;
4409;SDS011;2218;51.408;7.208;2022-11-13T15:58:46;0.80;;;0.80;;
4409;SDS011;2218;51.408;7.208;2022-11-13T16:01:32;0.70;;;0.60;;
4409;SDS011;2218;51.408;7.208;2022-11-13T16:04:18;0.80;;;0.70;;
4409;SDS011;2218;51.408;7.208;2022-11-13T16:07:03;0.80;;;0.80;;
4409;SDS011;2218;51.408;7.208;2022-11-13T16:09:50;0.80;;;0.80;;
4409;SDS011;2218;51.408;7.208;2022-11-13T16:12:35;0.80;;;0.70;;
4409;SDS011;2218;51.408;7.208;2022-11-13T16:15:22;0.80;;;0.80;;
4409;SDS011;2218;51.408;7.208;2022-11-13T16:18:09;0.80;;;0.67;;
4409;SDS011;2218;51.408;7.208;2022-11-13T16:21:09;0.80;;;0.70;;
4409;SDS011;2218;51.408;7.208;2022-11-13T16:23:57;0.80;;;0.80;;
4409;SDS011;2218;51.408;7.208;2022-11-13T16:26:44;0.90;;;0.70;;
4409;SDS011;2218;51.408;7.208;2022-11-13T16:29:38;0.70;;;0.70;;
4409;SDS011;2218;51.408;7.208;2022-11-13T16:32:24;0.80;;;0.73;;
4409;SDS011;2218;51.408;7.208;2022-11-13T16:35:11;1.67;;;0.73;;
4409;SDS011;2218;51.408;7.208;2022-11-13T16:37:58;0.90;;;0.80;;
4409;SDS011;2218;51.408;7.208;2022-11-13T16:40:43;0.80;;;0.80;;
4409;SDS011;2218;51.408;7.208;2022-11-13T16:43:29;0.73;;;0.70;;
4409;SDS011;2218;51.408;7.208;2022-11-13T16:46:17;0.80;;;0.70;;
4409;SDS011;2218;51.408;7.208;2022-11-13T16:49:13;0.80;;;0.80;;
4409;SDS011;2218;51.408;7.208;2022-11-13T16:52:02;0.70;;;0.60;;
4409;SDS011;2218;51.408;7.208;2022-11-13T16:54:48;0.73;;;0.63;;
4409;SDS011;2218;51.408;7.208;2022-11-13T16:57:33;0.70;;;0.57;;
4409;SDS011;2218;51.408;7.208;2022-11-13T17:00:19;1.00;;;0.90;;
4409;SDS011;2218;51.408;7.208;2022-11-13T17:03:05;0.80;;;0.70;;
4409;SDS011;2218;51.408;7.208;2022-11-13T17:05:52;0.80;;;0.73;;
4409;SDS011;2218;51.408;7.208;2022-11-13T17:08:37;0.70;;;0.60;;
4409;SDS011;2218;51.408;7.208;2022-11-13T17:11:23;0.80;;;0.70;;
4409;SDS011;2218;51.408;7.208;2022-11-13T17:14:11;0.80;;;0.80;;
4409;SDS011;2218;51.408;7.208;2022-11-13T17:16:57;0.87;;;0.70;;
4409;SDS011;2218;51.408;7.208;2022-11-13T17:19:42;0.80;;;0.70;;
4409;SDS011;2218;51.408;7.208;2022-11-13T17:22:29;0.77;;;0.77;;
4409;SDS011;2218;51.408;7.208;2022-11-13T17:25:15;0.87;;;0.87;;
4409;SDS011;2218;51.408;7.208;2022-11-13T17:28:01;0.80;;;0.80;;
4409;SDS011;2218;51.408;7.208;2022-11-13T17:30:46;0.80;;;0.60;;
4409;SDS011;2218;51.408;7.208;2022-11-13T17:33:32;0.80;;;0.77;;
4409;SDS011;2218;51.408;7.208;2022-11-13T17:36:18;0.80;;;0.60;;
4409;SDS011;2218;51.408;7.208;2022-11-13T17:39:05;0.70;;;0.60;;
4409;SDS011;2218;51.408;7.208;2022-11-13T17:41:51;0.80;;;0.67;;
4409;SDS011;2218;51.408;7.208;2022-11-13T17:44:36;1.00;;;0.90;;
4409;SDS011;2218;51.408;7.208;2022-11-13T17:47:22;0.80;;;0.80;;